Crossville, TN

1:16 AM CST on November 24, 2014 (GMT -0600)
Oak Ridge | Change Station
CLOSE
Current Station
Airport
Location: Oak Ridge,
Elevation: 915 ft
Nearby Weather Stations

Elev 915 ft 36.02 °N, 84.23 °W | Updated 23 minutes ago

Overcast
Overcast
62 °F
Feels Like 62 °F
N
10
Wind Variable Wind from SSW
Gusts 18 mph

Today
High -- | Low -- °F
--% Chance of Precip.
Yesterday
High -- | Low -- °F
Precip. -- in
6:25 AM 4:27 PM
Waxing Crescent, 4% visible
Pressure 29.61 in
Visibility 10.0 miles
Clouds Mostly Cloudy 2400 ft
Overcast 3100 ft
Dew Point 56 °F
Humidity 80%
Rainfall 0.00 in
Snow Depth Not available.
UV 0 out of 12
Pollen .10 out of 12
Air Quality Not available.
Flu Activity Not available.
METAR KOQT 240653Z AUTO 21009G16KT 10SM BKN024 OVC031 17/13 A2962 RMK AO2 SLP026 T01670133

More Conditions Fewer Conditions

Pressure 29.61 in
Visibility 10.0 miles
Clouds Mostly Cloudy 2400 ft
Overcast 3100 ft
Dew Point 56 °F
Humidity 80%
Rainfall 0.00 in
Snow Depth Not available.
UV 0 out of 12
Pollen .10 out of 12
Air Quality Not available.
Flu Activity Not available.
METAR KOQT 240653Z AUTO 21009G16KT 10SM BKN024 OVC031 17/13 A2962 RMK AO2 SLP026 T01670133

More Conditions Fewer Conditions

10-Day Weather Forecast

Almanac

Astronomy

Nov. 24, 2014 Rise Set
Actual Time
Civil Twilight
Nautical Twilight
Astronomical Twilight
Moon
Length of Visible Light
Length of Day
Tomorrow will be .
, % of the Moon is Illuminated

Today's Extremes

State Highs State Lows

Community

WunderPhotos

Upload Photos

1,773,295 photos uploaded!

WunderBlogs® & News

Nearby

Air Quality

  Air Quality AQ Index Pollutant
Not available.

Snow Depth

Station Depth Elevation

Earthquake Activity

City Distance Mag. Time & Date
Minimum magnitude displayed is 2.5.

Coastal Water Temperatures

Place Temperature

Nearby Weather Stations